Time;durP1;ratioP1;P1;durP2;ratioP2;P2;SDS_P1;SDS_P2;PMS_P1;PMS_P2;Temp;Humidity;BMP_temperature;BMP_pressure;BME280_temperature;BME280_humidity;BME280_pressure;Samples;Min_cycle;Max_cycle;Signal;HPM_P1;HPM_P2
2023/12/02 00:02:47;;;;;;;;;;;-0.90;99.90;;;;;;6722263;88;20184;-79
2023/12/02 00:12:48;;;;;;;;;;;-1.00;99.90;;;;;;6722442;88;20066;-79
2023/12/02 00:22:48;;;;;;;;;;;-1.10;99.90;;;;;;6721655;88;20095;-79
2023/12/02 00:32:49;;;;;;;;;;;-1.10;99.90;;;;;;6719133;88;20156;-80
2023/12/02 00:42:50;;;;;;;;;;;-1.30;99.90;;;;;;6719447;88;20124;-77
2023/12/02 00:52:50;;;;;;;;;;;-1.30;99.90;;;;;;6720301;88;20048;-79
2023/12/02 01:02:51;;;;;;;;;;;-1.40;99.90;;;;;;6720113;88;20211;-78
2023/12/02 01:12:51;;;;;;;;;;;-1.50;99.90;;;;;;6717374;88;20092;-79
2023/12/02 01:22:52;;;;;;;;;;;-1.50;99.90;;;;;;6721284;88;20622;-79
2023/12/02 01:32:52;;;;;;;;;;;-1.50;99.90;;;;;;6719662;88;20128;-79
2023/12/02 01:42:53;;;;;;;;;;;-1.60;99.90;;;;;;6719802;88;20054;-79
2023/12/02 01:52:53;;;;;;;;;;;-1.60;99.90;;;;;;6723837;88;20055;-80
2023/12/02 02:02:54;;;;;;;;;;;-1.70;99.90;;;;;;6719548;88;20088;-79
2023/12/02 02:12:54;;;;;;;;;;;-1.60;99.90;;;;;;6723655;88;20083;-79
2023/12/02 02:22:55;;;;;;;;;;;-1.70;99.90;;;;;;6719887;88;20850;-80
2023/12/02 02:32:55;;;;;;;;;;;-1.70;99.90;;;;;;6713968;88;20148;-80
2023/12/02 02:42:56;;;;;;;;;;;-1.80;99.90;;;;;;6717834;88;20246;-80
2023/12/02 02:52:56;;;;;;;;;;;-1.70;99.90;;;;;;6719840;88;20487;-78
2023/12/02 03:02:57;;;;;;;;;;;-1.60;99.90;;;;;;6727078;88;20055;-78
2023/12/02 03:12:57;;;;;;;;;;;-1.50;99.90;;;;;;6717026;88;20079;-80
2023/12/02 03:22:58;;;;;;;;;;;-1.50;99.90;;;;;;6720824;88;20075;-80
2023/12/02 03:33:19;;;;;;;;;;;-1.50;99.90;;;;;;6745672;77;20062;-80
2023/12/02 03:43:19;;;;;;;;;;;-1.50;99.90;;;;;;6755562;88;20054;-85
2023/12/02 03:53:19;;;;;;;;;;;-1.60;99.90;;;;;;6751591;88;20050;-81
2023/12/02 04:03:20;;;;;;;;;;;-1.70;99.90;;;;;;6757855;88;20040;-79
2023/12/02 04:13:21;;;;;;;;;;;-1.70;99.90;;;;;;6753917;88;20083;-77
2023/12/02 04:23:21;;;;;;;;;;;-1.60;99.90;;;;;;6740554;88;20091;-80
2023/12/02 04:33:21;;;;;;;;;;;-1.50;99.90;;;;;;6737840;88;20076;-80
2023/12/02 04:43:22;;;;;;;;;;;-1.60;99.90;;;;;;6739615;88;20062;-82
2023/12/02 04:53:22;;;;;;;;;;;-1.60;99.90;;;;;;6739479;88;20075;-79
2023/12/02 05:03:23;;;;;;;;;;;-1.70;99.90;;;;;;6740022;88;20659;-80
2023/12/02 05:13:23;;;;;;;;;;;-1.70;99.90;;;;;;6757141;88;20085;-79
2023/12/02 05:23:24;;;;;;;;;;;-1.80;99.90;;;;;;6743087;88;20414;-80
2023/12/02 05:33:24;;;;;;;;;;;-1.80;99.90;;;;;;6743869;88;20090;-81
2023/12/02 05:43:25;;;;;;;;;;;-1.70;99.90;;;;;;6744587;88;20139;-79
2023/12/02 05:53:25;;;;;;;;;;;-1.60;99.90;;;;;;6743274;88;20061;-80
2023/12/02 06:03:26;;;;;;;;;;;-1.60;99.90;;;;;;6743648;88;20070;-81
2023/12/02 06:13:26;;;;;;;;;;;-1.60;99.90;;;;;;6742535;88;20058;-80
2023/12/02 06:23:26;;;;;;;;;;;-1.50;99.90;;;;;;6743884;88;20596;-80
2023/12/02 06:33:27;;;;;;;;;;;-1.50;99.90;;;;;;6747326;88;20132;-80
2023/12/02 06:43:27;;;;;;;;;;;-1.40;99.90;;;;;;6742753;88;20073;-79
2023/12/02 06:53:28;;;;;;;;;;;-1.40;99.90;;;;;;6742186;88;20050;-79
2023/12/02 07:03:28;;;;;;;;;;;-1.30;99.90;;;;;;6741970;88;20763;-81
2023/12/02 07:13:29;;;;;;;;;;;-1.20;99.90;;;;;;6743544;88;20722;-81
2023/12/02 07:23:29;;;;;;;;;;;-1.10;99.90;;;;;;6748426;88;20030;-81
2023/12/02 08:14:25;;;;;;;;;;;-1.10;99.90;;;;;;7555421;77;20126;31
2023/12/02 09:05:05;;;;;;;;;;;-0.90;99.90;;;;;;6866786;77;20123;31
2023/12/02 09:25:12;;;;;;;;;;;-0.70;99.90;;;;;;7048632;77;20128;31
2023/12/02 09:45:18;;;;;;;;;;;-0.80;99.90;;;;;;6760594;88;20134;-81
2023/12/02 09:55:26;;;;;;;;;;;-0.80;99.90;;;;;;6755126;88;20062;-82
2023/12/02 10:05:26;;;;;;;;;;;-0.70;99.90;;;;;;6747189;88;20058;-83
2023/12/02 10:15:28;;;;;;;;;;;-0.60;99.90;;;;;;6747074;88;20080;-80
2023/12/02 10:25:33;;;;;;;;;;;-0.40;99.90;;;;;;6753722;88;20046;-81
2023/12/02 10:35:41;;;;;;;;;;;-0.40;99.90;;;;;;6734365;88;20111;-81
2023/12/02 10:45:42;;;;;;;;;;;-0.40;99.90;;;;;;6728669;88;20493;-81
2023/12/02 10:55:45;;;;;;;;;;;-0.30;99.90;;;;;;6728033;88;20062;-81
2023/12/02 11:05:51;;;;;;;;;;;-0.40;99.90;;;;;;6732535;88;20091;-81
2023/12/02 11:16:10;;;;;;;;;;;-0.30;99.90;;;;;;6732292;88;20524;-82
2023/12/02 11:26:17;;;;;;;;;;;-0.30;99.90;;;;;;6728482;88;20077;-81
2023/12/02 11:36:31;;;;;;;;;;;-0.20;99.90;;;;;;6694940;88;20169;-82
2023/12/02 11:46:37;;;;;;;;;;;-0.20;99.90;;;;;;6694398;88;20580;-82
2023/12/02 11:56:38;;;;;;;;;;;-0.20;99.90;;;;;;6724906;88;20050;-82
2023/12/02 12:06:57;;;;;;;;;;;-0.10;99.90;;;;;;6727968;88;20062;-82
2023/12/02 12:16:58;;;;;;;;;;;0.00;99.90;;;;;;6731921;88;20047;-82
2023/12/02 12:26:59;;;;;;;;;;;0.10;99.90;;;;;;6729885;88;20197;-81
2023/12/02 12:37:00;;;;;;;;;;;0.10;99.90;;;;;;6726288;88;20599;-81
2023/12/02 12:47:00;;;;;;;;;;;0.00;99.90;;;;;;6729687;88;20075;-82
2023/12/02 12:57:07;;;;;;;;;;;0.10;99.90;;;;;;6729349;88;20081;-82
2023/12/02 13:07:10;;;;;;;;;;;0.20;99.90;;;;;;6729967;88;20067;-82
2023/12/02 13:17:12;;;;;;;;;;;0.20;99.90;;;;;;6730831;88;20080;-80
2023/12/02 13:27:15;;;;;;;;;;;0.20;99.90;;;;;;6728185;88;20119;-81
2023/12/02 13:37:21;;;;;;;;;;;0.20;99.90;;;;;;6727986;88;20119;-80
2023/12/02 13:47:48;;;;;;;;;;;0.40;99.90;;;;;;6728460;88;20145;-82
2023/12/02 13:58:01;;;;;;;;;;;1.50;99.90;;;;;;6733791;88;20058;-81
2023/12/02 14:08:02;;;;;;;;;;;1.50;99.90;;;;;;6734975;88;20106;-82
2023/12/02 14:18:08;;;;;;;;;;;1.10;99.90;;;;;;6732660;88;20168;-82
2023/12/02 14:28:18;;;;;;;;;;;1.00;99.90;;;;;;6730107;88;20185;-82
2023/12/02 14:38:35;;;;;;;;;;;0.80;99.90;;;;;;6734257;88;20473;-82
2023/12/02 14:48:36;;;;;;;;;;;0.60;99.90;;;;;;6729639;88;20056;-82
2023/12/02 14:58:37;;;;;;;;;;;0.40;99.90;;;;;;6734850;88;20089;-82
2023/12/02 15:08:39;;;;;;;;;;;0.10;99.90;;;;;;6734670;88;20132;-81
2023/12/02 15:18:40;;;;;;;;;;;-0.10;99.90;;;;;;6734628;88;20054;-81
2023/12/02 15:28:40;;;;;;;;;;;-0.30;99.90;;;;;;6736416;88;20066;-82
2023/12/02 15:38:42;;;;;;;;;;;-0.50;99.90;;;;;;6738345;88;20477;-82
2023/12/02 15:48:42;;;;;;;;;;;-0.50;99.90;;;;;;6736836;88;20053;-81
2023/12/02 15:58:43;;;;;;;;;;;-0.50;99.90;;;;;;6739250;88;20066;-81
2023/12/02 16:08:44;;;;;;;;;;;-0.60;99.90;;;;;;6754273;88;20151;-81
2023/12/02 16:18:45;;;;;;;;;;;-0.70;99.90;;;;;;6754078;88;20184;-81
2023/12/02 16:28:46;;;;;;;;;;;-0.70;99.90;;;;;;6754126;88;20070;-81
2023/12/02 16:38:49;;;;;;;;;;;-0.60;99.90;;;;;;6736309;88;20091;-81
2023/12/02 16:48:50;;;;;;;;;;;-0.70;99.90;;;;;;6736619;88;20074;-82
2023/12/02 16:58:53;;;;;;;;;;;-0.80;99.90;;;;;;6736292;88;20172;-81
2023/12/02 17:08:56;;;;;;;;;;;-0.60;99.90;;;;;;6739094;88;20071;-81
2023/12/02 17:18:56;;;;;;;;;;;-0.60;99.90;;;;;;6751429;88;20088;-81
2023/12/02 17:29:00;;;;;;;;;;;-0.60;99.90;;;;;;6745596;88;20532;-80
2023/12/02 17:39:00;;;;;;;;;;;-0.60;99.90;;;;;;6727482;88;20070;-80
2023/12/02 17:49:00;;;;;;;;;;;-0.50;99.90;;;;;;6729472;88;20188;-80
2023/12/02 17:59:01;;;;;;;;;;;-0.50;99.90;;;;;;6744689;88;20072;-80
2023/12/02 18:09:02;;;;;;;;;;;-0.60;99.90;;;;;;6732229;88;20079;-81
2023/12/02 18:19:03;;;;;;;;;;;-0.50;99.90;;;;;;6729284;88;20075;-80
2023/12/02 18:29:04;;;;;;;;;;;-0.50;99.90;;;;;;6731800;88;20073;-80
2023/12/02 18:39:04;;;;;;;;;;;-0.70;99.90;;;;;;6749766;88;20072;-81
2023/12/02 18:49:06;;;;;;;;;;;-0.60;99.90;;;;;;6761128;88;20048;-80
2023/12/02 18:59:07;;;;;;;;;;;-0.40;99.90;;;;;;6756879;88;20066;-80
2023/12/02 19:09:08;;;;;;;;;;;-0.50;99.90;;;;;;6741084;88;20055;-77
2023/12/02 19:19:09;;;;;;;;;;;-0.50;99.90;;;;;;6737199;88;20196;-80
2023/12/02 19:29:13;;;;;;;;;;;-0.50;99.90;;;;;;6750218;88;20110;-79
2023/12/02 19:39:13;;;;;;;;;;;-0.60;99.90;;;;;;6759535;88;20976;-81
2023/12/02 19:49:14;;;;;;;;;;;-0.60;99.90;;;;;;6744864;88;20054;-83
2023/12/02 19:59:15;;;;;;;;;;;-0.60;99.90;;;;;;6743509;88;20088;-81
2023/12/02 20:09:16;;;;;;;;;;;-0.60;99.90;;;;;;6750236;88;20548;-83
2023/12/02 20:19:16;;;;;;;;;;;-0.60;99.90;;;;;;6753187;88;20051;-81
2023/12/02 20:29:17;;;;;;;;;;;-0.60;99.90;;;;;;6747040;88;20028;-80
2023/12/02 20:39:17;;;;;;;;;;;-0.60;99.90;;;;;;6764099;88;20117;-80
2023/12/02 20:49:18;;;;;;;;;;;-0.60;99.90;;;;;;6754905;88;20087;-81
2023/12/02 20:59:19;;;;;;;;;;;-0.60;99.90;;;;;;6755118;88;20338;-81
2023/12/02 21:09:20;;;;;;;;;;;-0.60;99.90;;;;;;6761660;88;20053;-81
2023/12/02 21:19:20;;;;;;;;;;;-0.70;99.90;;;;;;6760564;88;20053;-81
2023/12/02 21:29:21;;;;;;;;;;;-0.70;99.90;;;;;;6755229;88;20050;-79
2023/12/02 21:39:21;;;;;;;;;;;-0.70;99.90;;;;;;6755169;88;20052;-81
2023/12/02 21:49:26;;;;;;;;;;;-0.80;99.90;;;;;;6749026;88;20588;-79
2023/12/02 21:59:27;;;;;;;;;;;-0.80;99.90;;;;;;6755665;88;20029;-80
2023/12/02 22:09:31;;;;;;;;;;;-0.80;99.90;;;;;;6764771;88;20552;-80
2023/12/02 22:19:33;;;;;;;;;;;-0.80;99.90;;;;;;6750332;88;20438;-80
2023/12/02 22:29:35;;;;;;;;;;;-0.80;99.90;;;;;;6752974;88;20050;-81
2023/12/02 22:39:35;;;;;;;;;;;-0.70;99.90;;;;;;6756186;88;20075;-80
2023/12/02 22:49:36;;;;;;;;;;;-0.70;99.90;;;;;;6750056;88;20055;-79
2023/12/02 22:59:37;;;;;;;;;;;-0.60;99.90;;;;;;6753263;88;20061;-81
2023/12/02 23:09:40;;;;;;;;;;;-0.70;99.90;;;;;;6756326;88;20706;-81
2023/12/02 23:19:41;;;;;;;;;;;-0.60;99.90;;;;;;6752563;88;20121;-80
2023/12/02 23:29:41;;;;;;;;;;;-0.70;99.90;;;;;;6754780;88;20039;-80
2023/12/02 23:39:42;;;;;;;;;;;-0.70;99.90;;;;;;6756498;88;20590;-80
2023/12/02 23:49:43;;;;;;;;;;;-0.70;99.90;;;;;;6752712;88;20064;-81
2023/12/02 23:59:44;;;;;;;;;;;-0.70;99.90;;;;;;6754951;88;20053;-81
